Biggsville, Illinois
Current Conditions -  °F | °C
As of 2:53 AM on Friday 19 Dec 2014 (Local Time) from KBRL Reporting Station
Unknown Precip Unknown Precip  
Wind Chill: 29°   Ceiling: 4500
Heat Index: 29°   Visibility: 9mi
Dew Point: 21°   Wind: 3mph
Humidity: 72%   Direction: 350°N
Pressure: 30.29"   Gusts: NA
Location:  40.85°N, 90.86°W
Report Text: KBRL 190853Z AUTO 35003KT 9SM UP OVC045 M02/M06 A3029 RMK AO2 UPB37SNB40E53 SLP265 P0000 60000 T10171061 50001
Loading
Personal Weather Stations






























Interactive Weather Map New forecast layout! Learn more

10-Day Weather Forecast

Advertisements
Track Severe Weather on mobile